KBNW/BNW METAR and TAF weather

Enter ICAO airport designator
Station Type Date Time Source
KBNW METAR 2018/04/27 00:55 UTC NOAA

KBNW 270055Z AUTO 33018G24KT 10SM CLR 13/01 A2994 RMK AO2


Station Type Date Time Source
KBNW Decoded METAR 2018/04/27 00:55 UTC NOAA

Boone Municipal, IA, United States (KBNW) 42-03N 093-51W
Apr 26, 2018 - 08:55 PM EDT / 2018.04.27 0055 UTC
Wind: from the NNW (330 degrees) at 21 MPH (18 KT) gusting to 28 MPH (24 KT):0
Visibility: 10 mile(s):0
Sky conditions: clear
Temperature: 55 F (13 C)
Dew Point: 33 F (1 C)
Relative Humidity: 43%
Pressure (altimeter): 29.94 in. Hg (1013 hPa)
ob: KBNW 270055Z AUTO 33018G24KT 10SM CLR 13/01 A2994 RMK AO2
cycle: 1

Station Type Date Time Source
KBNW TAF UTC NOAA

Error!


Example: see airport list